Terminal Aerodrome Forecast
Issued by NWS Blacksburg, VA

Current Version | Previous Version | Graphics & Text | Print | Product List | Glossary On
Versions: 1 2 3 4 5 6 7 8 9 10 11 12 13 14 15 16 17 18 19 20 21 22 23 24 25 26 27
000
FTUS41 KRNK 271124
TAFBLF
TAF
KBLF 271124Z 2712/2812 00000KT P6SM BKN100
     FM271500 28005KT P6SM BKN080
      TEMPO 2717/2719 P6SM TSRA OVC035CB
     FM272100 30006KT P6SM VCTS OVC035CB
     FM280100 00000KT P6SM BKN090=

USA.gov is the U.S. government's official web portal to all federal, state and local government web resources and services.